createdAt,value
2023-04-03T00:00:35.329Z,4.88
2023-04-03T00:03:02.475Z,5.10
2023-04-03T00:05:29.296Z,5.60
2023-04-03T00:07:57.698Z,5.68
2023-04-03T00:10:24.606Z,5.72
2023-04-03T00:12:52.643Z,5.63
2023-04-03T00:15:19.530Z,5.20
2023-04-03T00:17:46.724Z,4.93
2023-04-03T00:20:13.637Z,5.65
2023-04-03T00:22:40.806Z,5.70
2023-04-03T00:25:09.240Z,5.80
2023-04-03T00:27:40.372Z,5.68
2023-04-03T00:30:09.705Z,4.95
2023-04-03T00:32:36.575Z,4.97
2023-04-03T00:35:05.233Z,5.35
2023-04-03T00:37:32.576Z,4.65
2023-04-03T00:39:59.825Z,5.85
2023-04-03T00:42:27.101Z,6.20
2023-04-03T00:44:57.478Z,7.03
2023-04-03T00:47:25.113Z,7.10
2023-04-03T00:49:53.788Z,5.60
2023-04-03T00:52:23.066Z,6.45
2023-04-03T00:54:51.040Z,5.88
2023-04-03T00:57:18.480Z,4.72
2023-04-03T00:59:51.245Z,4.40
2023-04-03T01:02:19.813Z,4.47
2023-04-03T01:04:48.323Z,3.83
2023-04-03T01:07:20.506Z,4.07
2023-04-03T01:09:48.990Z,3.53
2023-04-03T01:12:19.226Z,3.55
2023-04-03T01:14:49.276Z,4.38
2023-04-03T01:17:42.985Z,3.53
2023-04-03T01:20:13.117Z,3.85
2023-04-03T01:22:43.647Z,4.82
2023-04-03T01:25:11.082Z,5.45
2023-04-03T01:27:38.196Z,5.53
2023-04-03T01:30:05.829Z,4.97
2023-04-03T01:32:32.994Z,5.38
2023-04-03T01:35:00.345Z,4.72
2023-04-03T01:37:27.562Z,4.28
2023-04-03T01:39:54.711Z,5.40
2023-04-03T01:42:21.909Z,5.45
2023-04-03T01:44:49.078Z,4.75
2023-04-03T01:47:17.302Z,5.13
2023-04-03T01:49:44.576Z,4.45
2023-04-03T01:52:12.300Z,4.68
2023-04-03T01:54:39.465Z,4.50
2023-04-03T01:57:06.737Z,4.50
2023-04-03T01:59:33.923Z,4.65
2023-04-03T02:02:01.341Z,4.90
2023-04-03T02:04:29.050Z,3.55
2023-04-03T02:06:56.762Z,3.90
2023-04-03T02:09:23.992Z,3.38
2023-04-03T02:11:51.213Z,3.30
2023-04-03T02:14:19.469Z,3.70
2023-04-03T02:16:46.666Z,3.90
2023-04-03T02:19:13.899Z,2.90
2023-04-03T02:21:41.343Z,3.00
2023-04-03T02:24:08.676Z,3.90
2023-04-03T02:26:35.928Z,3.85
2023-04-03T02:29:03.692Z,4.22
2023-04-03T02:31:30.970Z,3.67
2023-04-03T02:33:58.192Z,4.13
2023-04-03T02:36:26.064Z,3.75
2023-04-03T02:38:53.378Z,3.88
2023-04-03T02:41:26.842Z,3.70
2023-04-03T02:43:54.071Z,3.85
2023-04-03T02:46:22.584Z,4.57
2023-04-03T02:48:49.726Z,3.72
2023-04-03T02:51:17.536Z,4.15
2023-04-03T02:53:44.793Z,4.88
2023-04-03T02:56:12.347Z,4.50
2023-04-03T02:58:39.495Z,3.92
2023-04-03T03:01:07.110Z,3.50
2023-04-03T03:03:34.289Z,4.07
2023-04-03T03:06:12.119Z,3.78
2023-04-03T03:08:39.646Z,4.82
2023-04-03T03:11:07.138Z,3.88
2023-04-03T03:13:35.217Z,3.92
2023-04-03T03:16:02.541Z,4.18
2023-04-03T03:18:29.781Z,3.78
2023-04-03T03:20:58.586Z,4.35
2023-04-03T03:23:26.594Z,3.50
2023-04-03T03:26:01.212Z,4.00
2023-04-03T03:28:28.796Z,4.45
2023-04-03T03:30:56.198Z,4.15
2023-04-03T03:33:23.449Z,4.63
2023-04-03T03:35:51.110Z,5.07
2023-04-03T03:38:18.257Z,3.35
2023-04-03T03:40:45.648Z,3.60
2023-04-03T03:43:12.917Z,4.28
2023-04-03T03:45:40.309Z,4.20
2023-04-03T03:48:07.534Z,4.70
2023-04-03T03:50:35.165Z,4.20
2023-04-03T03:53:02.616Z,3.92
2023-04-03T03:55:29.926Z,4.65
2023-04-03T03:57:57.183Z,4.10
2023-04-03T04:00:24.709Z,4.05
2023-04-03T04:02:51.946Z,3.40
2023-04-03T04:05:20.129Z,3.58
2023-04-03T04:07:48.692Z,3.30
2023-04-03T04:10:16.752Z,3.10
2023-04-03T04:12:43.658Z,2.90
2023-04-03T04:15:11.052Z,2.53
2023-04-03T04:17:37.990Z,2.70
2023-04-03T04:20:06.447Z,3.28
2023-04-03T04:22:33.161Z,3.22
2023-04-03T04:25:01.132Z,2.78
2023-04-03T04:27:27.986Z,3.70
2023-04-03T04:29:54.734Z,2.30
2023-04-03T04:32:21.467Z,1.95
2023-04-03T04:34:48.222Z,2.28
2023-04-03T04:37:15.020Z,2.95
2023-04-03T04:39:41.873Z,2.50
2023-04-03T04:42:15.567Z,2.35
2023-04-03T04:44:43.515Z,2.72
2023-04-03T04:47:10.380Z,2.78
2023-04-03T04:49:37.362Z,2.22
2023-04-03T04:52:04.159Z,2.42
2023-04-03T04:54:30.935Z,2.90
2023-04-03T04:56:57.815Z,2.65
2023-04-03T04:59:24.713Z,2.42
2023-04-03T05:01:51.525Z,2.65
2023-04-03T05:04:18.783Z,2.78
2023-04-03T05:06:45.820Z,2.75
2023-04-03T05:09:13.230Z,2.63
2023-04-03T05:11:39.938Z,2.75
2023-04-03T05:14:07.664Z,2.80
2023-04-03T05:16:34.720Z,2.97
2023-04-03T05:19:01.659Z,2.72
2023-04-03T05:21:33.572Z,2.47
2023-04-03T05:24:03.748Z,2.50
2023-04-03T05:26:31.728Z,2.83
2023-04-03T05:28:58.889Z,3.05
2023-04-03T05:31:25.790Z,3.33
2023-04-03T05:33:52.827Z,2.83
2023-04-03T05:36:19.781Z,2.70
2023-04-03T05:38:46.592Z,2.67
2023-04-03T05:41:13.758Z,2.47
2023-04-03T05:43:41.012Z,2.75
2023-04-03T05:46:14.313Z,2.17
2023-04-03T05:48:41.091Z,2.50
2023-04-03T05:51:14.755Z,3.22
2023-04-03T05:53:42.429Z,3.22
2023-04-03T05:56:09.221Z,2.80
2023-04-03T05:58:37.184Z,3.28
2023-04-03T06:01:04.191Z,3.08
2023-04-03T06:03:31.503Z,3.03
2023-04-03T06:05:58.353Z,2.90
2023-04-03T06:08:25.282Z,3.10
2023-04-03T06:10:52.642Z,2.45
2023-04-03T06:13:20.560Z,2.70
2023-04-03T06:15:47.787Z,3.00
2023-04-03T06:18:14.499Z,3.55
2023-04-03T06:20:41.480Z,2.60
2023-04-03T06:23:09.135Z,2.83
2023-04-03T06:25:36.347Z,2.80
2023-04-03T06:28:03.218Z,3.03
2023-04-03T06:30:30.136Z,3.05
2023-04-03T06:32:57.728Z,3.40
2023-04-03T06:35:24.803Z,2.70
2023-04-03T06:37:51.557Z,3.47
2023-04-03T06:40:22.704Z,2.58
2023-04-03T06:42:49.592Z,2.58
2023-04-03T06:45:16.836Z,2.95
2023-04-03T06:47:44.423Z,2.70
2023-04-03T06:50:15.103Z,2.40
2023-04-03T06:55:10.809Z,3.67
2023-04-03T06:57:38.208Z,3.30
2023-04-03T07:00:06.834Z,3.03
2023-04-03T07:02:33.820Z,3.28
2023-04-03T07:05:00.832Z,2.95
2023-04-03T07:07:27.647Z,2.78
2023-04-03T07:09:54.664Z,2.60
2023-04-03T07:12:21.722Z,2.40
2023-04-03T07:14:48.504Z,3.85
2023-04-03T07:17:15.592Z,3.75
2023-04-03T07:19:42.321Z,3.10
2023-04-03T07:22:09.708Z,2.80
2023-04-03T07:24:36.771Z,2.72
2023-04-03T07:27:04.896Z,2.67
2023-04-03T07:29:31.644Z,3.10
2023-04-03T07:32:00.935Z,3.80
2023-04-03T07:34:27.960Z,4.07
2023-04-03T07:36:54.824Z,3.28
2023-04-03T07:39:21.644Z,2.92
2023-04-03T07:41:48.393Z,2.63
2023-04-03T07:44:15.466Z,2.78
2023-04-03T07:46:43.382Z,3.38
2023-04-03T07:49:10.694Z,3.03
2023-04-03T07:51:37.769Z,2.75
2023-04-03T07:54:05.174Z,3.53
2023-04-03T07:56:32.807Z,3.92
2023-04-03T07:58:59.663Z,3.83
2023-04-03T08:01:27.457Z,3.97
2023-04-03T08:03:54.556Z,3.65
2023-04-03T08:06:29.307Z,3.67
2023-04-03T08:09:01.516Z,3.85
2023-04-03T08:11:28.302Z,3.72
2023-04-03T08:13:56.322Z,4.22
2023-04-03T08:16:26.762Z,3.38
2023-04-03T08:18:53.779Z,4.32
2023-04-03T08:21:21.105Z,3.03
2023-04-03T08:23:51.222Z,3.75
2023-04-03T08:26:21.917Z,3.80
2023-04-03T08:28:50.938Z,4.40
2023-04-03T08:31:20.869Z,4.10
2023-04-03T08:33:48.676Z,4.10
2023-04-03T08:36:26.294Z,3.78
2023-04-03T08:38:54.545Z,3.17
2023-04-03T08:41:32.801Z,3.33
2023-04-03T08:44:03.469Z,3.72
2023-04-03T08:49:27.915Z,3.20
2023-04-03T08:51:57.140Z,3.88
2023-04-03T08:54:38.667Z,3.70
2023-04-03T08:57:09.785Z,3.35
2023-04-03T08:59:39.384Z,3.45
2023-04-03T09:02:31.607Z,4.15
2023-04-03T09:04:59.059Z,4.07
2023-04-03T09:07:44.383Z,5.43
2023-04-03T09:10:14.797Z,3.90
2023-04-03T09:12:51.510Z,4.32
2023-04-03T09:15:37.865Z,3.83
2023-04-03T09:18:21.804Z,3.67
2023-04-03T09:21:07.202Z,3.83
2023-04-03T09:23:54.241Z,3.40
2023-04-03T09:26:27.632Z,4.43
2023-04-03T09:28:58.354Z,4.22
2023-04-03T09:33:59.412Z,3.67
2023-04-03T09:36:43.520Z,5.38
2023-04-03T09:39:26.438Z,3.65
2023-04-03T09:42:16.340Z,3.05
2023-04-03T09:44:43.216Z,3.88
2023-04-03T09:47:23.113Z,3.50
2023-04-03T09:49:49.854Z,3.85
2023-04-03T09:52:35.667Z,3.33
2023-04-03T09:55:29.606Z,3.55
2023-04-03T09:58:02.960Z,3.35
2023-04-03T10:00:35.012Z,3.55
2023-04-03T10:03:02.790Z,3.03
2023-04-03T10:05:39.839Z,3.20
2023-04-03T10:08:15.489Z,4.45
2023-04-03T10:10:48.080Z,3.65
2023-04-03T10:13:21.977Z,3.30
2023-04-03T10:16:02.676Z,3.80
2023-04-03T10:18:38.546Z,3.65
2023-04-03T10:21:26.517Z,4.22
2023-04-03T10:24:10.795Z,3.40
2023-04-03T10:27:04.861Z,3.50
2023-04-03T10:29:56.669Z,3.25
2023-04-03T10:32:32.611Z,3.60
2023-04-03T10:35:05.412Z,3.88
2023-04-03T10:37:44.322Z,3.33
2023-04-03T10:40:34.791Z,3.80
2023-04-03T10:43:18.845Z,3.60
2023-04-03T10:45:57.855Z,3.50
2023-04-03T10:48:34.875Z,4.20
2023-04-03T10:51:24.675Z,3.20
2023-04-03T10:54:14.444Z,3.97
2023-04-03T10:57:04.426Z,3.97
2023-04-03T10:59:56.695Z,2.75
2023-04-03T11:02:47.054Z,2.85
2023-04-03T11:05:27.425Z,2.75
2023-04-03T11:07:55.586Z,4.05
2023-04-03T11:10:31.518Z,3.28
2023-04-03T11:13:07.689Z,2.58
2023-04-03T11:15:34.530Z,3.17
2023-04-03T11:18:14.543Z,3.28
2023-04-03T11:20:45.551Z,3.85
2023-04-03T11:23:28.296Z,3.28
2023-04-03T11:26:10.849Z,3.80
2023-04-03T11:28:38.567Z,2.90
2023-04-03T11:31:43.137Z,3.60
2023-04-03T11:34:29.020Z,2.95
2023-04-03T11:37:01.729Z,3.63
2023-04-03T11:39:35.827Z,3.33
2023-04-03T11:42:20.799Z,2.72
2023-04-03T11:44:48.013Z,2.83
2023-04-03T11:47:49.231Z,3.17
2023-04-03T11:50:34.968Z,3.22
2023-04-03T11:53:07.488Z,2.65
2023-04-03T11:55:34.355Z,2.55
2023-04-03T11:58:04.215Z,3.15
2023-04-03T12:01:07.854Z,2.70
2023-04-03T12:03:42.876Z,2.65
2023-04-03T12:06:16.010Z,3.22
2023-04-03T12:08:43.319Z,3.58
2023-04-03T12:11:10.153Z,3.45
2023-04-03T12:13:39.685Z,3.10
2023-04-03T12:16:21.694Z,2.83
2023-04-03T12:19:04.469Z,2.75
2023-04-03T12:21:37.635Z,2.35
2023-04-03T12:24:04.625Z,2.85
2023-04-03T12:26:57.103Z,2.90
2023-04-03T12:29:43.899Z,3.05
2023-04-03T12:32:39.688Z,3.40
2023-04-03T12:35:15.235Z,3.50
2023-04-03T12:37:51.860Z,2.65
2023-04-03T12:40:32.876Z,2.83
2023-04-03T12:43:30.421Z,2.65
2023-04-03T12:46:13.640Z,3.20
2023-04-03T12:48:52.836Z,3.00
2023-04-03T12:51:30.204Z,2.97
2023-04-03T12:54:03.568Z,2.50
2023-04-03T12:56:33.694Z,2.72
2023-04-03T12:59:23.521Z,3.05
2023-04-03T13:01:59.109Z,2.42
2023-04-03T13:04:27.561Z,3.22
2023-04-03T13:06:54.437Z,2.97
2023-04-03T13:09:26.445Z,3.08
2023-04-03T13:12:13.462Z,2.47
2023-04-03T13:14:42.071Z,2.85
2023-04-03T13:17:16.469Z,2.30
2023-04-03T13:19:46.885Z,2.85
2023-04-03T13:22:31.699Z,2.40
2023-04-03T13:25:02.840Z,2.92
2023-04-03T13:27:32.204Z,2.72
2023-04-03T13:30:01.714Z,2.78
2023-04-03T13:32:32.317Z,2.90
2023-04-03T13:37:38.705Z,3.20
2023-04-03T13:40:08.297Z,3.10
2023-04-03T13:42:37.825Z,2.50
2023-04-03T13:45:30.120Z,2.47
2023-04-03T13:48:23.674Z,2.40
2023-04-03T13:51:01.754Z,3.10
2023-04-03T13:53:31.857Z,2.85
2023-04-03T13:56:09.278Z,3.10
2023-04-03T13:58:38.797Z,2.72
2023-04-03T14:01:08.525Z,3.25
2023-04-03T14:03:42.111Z,3.30
2023-04-03T14:06:14.182Z,2.55
2023-04-03T14:08:43.812Z,2.47
2023-04-03T14:11:32.004Z,2.90
2023-04-03T14:14:15.621Z,2.70
2023-04-03T14:16:45.361Z,3.78
2023-04-03T14:19:22.404Z,3.00
2023-04-03T14:21:49.741Z,2.97
2023-04-03T14:24:17.803Z,2.40
2023-04-03T14:26:45.135Z,2.92
2023-04-03T14:29:14.051Z,2.25
2023-04-03T14:31:43.703Z,2.95
2023-04-03T14:34:12.641Z,2.40
2023-04-03T14:36:40.563Z,3.30
2023-04-03T14:39:12.698Z,3.30
2023-04-03T14:41:39.462Z,2.35
2023-04-03T14:44:06.281Z,3.58
2023-04-03T14:46:55.061Z,3.30
2023-04-03T14:49:27.155Z,2.80
2023-04-03T14:54:26.625Z,2.40
2023-04-03T14:56:58.962Z,2.22
2023-04-03T14:59:27.236Z,2.53
2023-04-03T15:01:53.997Z,2.70
2023-04-03T15:04:21.973Z,4.60
2023-04-03T15:06:49.907Z,3.40
2023-04-03T15:09:26.414Z,4.43
2023-04-03T15:11:54.801Z,8.48
2023-04-03T15:14:35.326Z,6.32
2023-04-03T15:17:06.892Z,20.52
2023-04-03T15:19:43.016Z,5.75
2023-04-03T15:22:18.470Z,2.85
2023-04-03T15:24:45.413Z,3.92
2023-04-03T15:27:13.533Z,3.65
2023-04-03T15:29:42.157Z,4.35
2023-04-03T15:32:10.163Z,4.32
2023-04-03T15:34:37.774Z,3.28
2023-04-03T15:37:04.641Z,3.88
2023-04-03T15:39:31.455Z,3.35
2023-04-03T15:42:00.897Z,3.58
2023-04-03T15:44:27.777Z,4.15
2023-04-03T15:46:54.626Z,4.53
2023-04-03T15:49:22.539Z,5.40
2023-04-03T15:51:49.358Z,3.47
2023-04-03T15:54:17.162Z,5.22
2023-04-03T15:56:43.867Z,5.18
2023-04-03T15:59:11.549Z,5.45
2023-04-03T16:01:41.660Z,4.38
2023-04-03T16:04:10.129Z,4.97
2023-04-03T16:06:38.079Z,7.38
2023-04-03T16:09:05.568Z,8.48
2023-04-03T16:11:32.570Z,8.15
2023-04-03T16:13:59.527Z,6.80
2023-04-03T16:16:28.287Z,6.07
2023-04-03T16:18:56.571Z,5.35
2023-04-03T16:21:24.817Z,4.53
2023-04-03T16:23:52.070Z,3.70
2023-04-03T16:26:19.157Z,3.13
2023-04-03T16:28:46.063Z,3.78
2023-04-03T16:31:13.108Z,3.28
2023-04-03T16:33:39.900Z,2.70
2023-04-03T16:36:07.009Z,3.58
2023-04-03T16:38:34.306Z,4.90
2023-04-03T16:41:05.445Z,3.70
2023-04-03T16:43:36.610Z,4.90
2023-04-03T16:46:03.850Z,3.95
2023-04-03T16:48:31.419Z,3.70
2023-04-03T16:50:58.397Z,2.92
2023-04-03T16:53:30.416Z,4.55
2023-04-03T16:55:59.582Z,4.55
2023-04-03T16:58:26.343Z,8.82
2023-04-03T17:00:54.934Z,5.90
2023-04-03T17:03:26.098Z,7.45
2023-04-03T17:05:53.211Z,5.20
2023-04-03T17:08:20.365Z,5.03
2023-04-03T17:10:48.745Z,5.40
2023-04-03T17:13:16.658Z,4.15
2023-04-03T17:15:44.506Z,4.68
2023-04-03T17:18:11.299Z,6.40
2023-04-03T17:20:39.717Z,6.88
2023-04-03T17:23:11.969Z,5.80
2023-04-03T17:25:38.799Z,6.78
2023-04-03T17:28:06.077Z,5.50
2023-04-03T17:30:32.874Z,5.47
2023-04-03T17:33:02.200Z,5.80
2023-04-03T17:35:31.083Z,4.45
2023-04-03T17:37:59.207Z,5.53
2023-04-03T17:40:27.583Z,5.35
2023-04-03T17:42:54.384Z,4.93
2023-04-03T17:45:22.326Z,4.78
2023-04-03T17:47:51.168Z,5.93
2023-04-03T17:50:19.113Z,4.50
2023-04-03T17:52:45.860Z,4.45
2023-04-03T17:55:13.566Z,5.20
2023-04-03T17:57:42.620Z,4.40
2023-04-03T18:00:10.148Z,4.68
2023-04-03T18:02:37.088Z,4.10
2023-04-03T18:05:04.579Z,4.80
2023-04-03T18:07:31.583Z,5.32
2023-04-03T18:09:59.342Z,6.70
2023-04-03T18:12:27.626Z,6.22
2023-04-03T18:14:55.650Z,6.18
2023-04-03T18:17:22.452Z,5.32
2023-04-03T18:19:51.566Z,5.68
2023-04-03T18:22:21.035Z,5.40
2023-04-03T18:24:50.411Z,5.50
2023-04-03T18:27:19.886Z,5.22
2023-04-03T18:29:50.962Z,7.03
2023-04-03T18:32:20.548Z,7.22
2023-04-03T18:34:47.385Z,6.30
2023-04-03T18:37:15.394Z,6.20
2023-04-03T18:39:42.666Z,7.25
2023-04-03T18:42:21.525Z,7.07
2023-04-03T18:45:27.916Z,5.93
2023-04-03T18:47:43.756Z,8.38
2023-04-03T18:50:11.283Z,7.03
2023-04-03T18:52:37.977Z,9.10
2023-04-03T18:55:05.445Z,7.70
2023-04-03T18:57:32.294Z,8.48
2023-04-03T18:59:59.016Z,6.72
2023-04-03T19:02:26.908Z,7.70
2023-04-03T19:04:55.053Z,8.73
2023-04-03T19:07:21.860Z,15.77
2023-04-03T19:09:48.873Z,14.32
2023-04-03T19:12:15.589Z,26.17
2023-04-03T19:14:42.259Z,14.52
2023-04-03T19:17:09.372Z,10.90
2023-04-03T19:19:36.375Z,10.55
2023-04-03T19:22:03.205Z,9.57
2023-04-03T19:24:30.103Z,9.63
2023-04-03T19:26:57.345Z,10.55
2023-04-03T19:29:24.089Z,10.63
2023-04-03T19:31:51.514Z,8.95
2023-04-03T19:34:29.264Z,10.60
2023-04-03T19:37:02.846Z,10.02
2023-04-03T19:43:00.643Z,8.05
2023-04-03T19:45:32.503Z,8.70
2023-04-03T19:48:08.206Z,8.02
2023-04-03T19:50:49.015Z,6.22
2023-04-03T20:02:22.198Z,9.05
2023-04-03T20:04:49.110Z,8.80
2023-04-03T20:07:16.173Z,7.13
2023-04-03T20:09:43.198Z,8.80
2023-04-03T20:12:10.785Z,7.80
2023-04-03T20:14:39.581Z,8.70
2023-04-03T20:17:07.832Z,7.22
2023-04-03T20:19:35.441Z,7.35
2023-04-03T20:22:02.284Z,7.55
2023-04-03T20:24:31.424Z,7.20
2023-04-03T20:26:58.690Z,6.95
2023-04-03T20:29:29.559Z,6.60
2023-04-03T20:31:56.857Z,6.57
2023-04-03T20:34:24.159Z,7.55
2023-04-03T20:36:52.065Z,6.60
2023-04-03T20:39:21.004Z,7.63
2023-04-03T20:41:48.156Z,8.70
2023-04-03T20:44:15.518Z,8.07
2023-04-03T20:49:16.435Z,8.88
2023-04-03T20:51:44.000Z,6.95
2023-04-03T20:54:10.734Z,6.57
2023-04-03T20:56:38.436Z,6.32
2023-04-03T20:59:06.756Z,6.25
2023-04-03T21:01:34.372Z,6.88
2023-04-03T21:04:12.298Z,5.78
2023-04-03T21:07:18.356Z,5.22
2023-04-03T21:10:24.026Z,5.65
2023-04-03T21:13:28.744Z,5.80
2023-04-03T21:15:55.730Z,6.75
2023-04-03T21:18:39.927Z,5.95
2023-04-03T21:21:08.971Z,5.65
2023-04-03T21:23:35.899Z,6.10
2023-04-03T21:26:04.253Z,5.95
2023-04-03T21:28:31.928Z,6.25
2023-04-03T21:31:00.396Z,8.40
2023-04-03T21:33:28.250Z,8.70
2023-04-03T21:35:58.573Z,9.45
2023-04-03T21:39:04.276Z,11.07
2023-04-03T21:41:32.947Z,7.72
2023-04-03T21:44:00.141Z,7.95
2023-04-03T21:46:27.632Z,10.48
2023-04-03T21:48:56.040Z,11.05
2023-04-03T21:51:23.076Z,9.88
2023-04-03T21:53:53.811Z,12.15
2023-04-03T21:56:24.939Z,16.80
2023-04-03T21:58:53.103Z,15.52
2023-04-03T22:01:20.957Z,12.90
2023-04-03T22:03:47.917Z,10.52
2023-04-03T22:06:20.975Z,11.73
2023-04-03T22:08:48.027Z,7.93
2023-04-03T22:11:15.756Z,11.32
2023-04-03T22:13:44.070Z,8.57
2023-04-03T22:16:14.403Z,7.68
2023-04-03T22:18:41.490Z,9.00
2023-04-03T22:21:08.910Z,7.63
2023-04-03T22:24:38.504Z,6.07
2023-04-03T22:40:28.722Z,6.68
2023-04-03T22:43:31.570Z,5.57
2023-04-03T22:59:21.316Z,6.05
2023-04-03T23:05:31.837Z,7.78
2023-04-03T23:14:36.761Z,5.38
2023-04-03T23:18:07.491Z,6.97
2023-04-03T23:21:02.150Z,5.35
2023-04-03T23:27:02.364Z,6.80
2023-04-03T23:32:55.809Z,5.30
2023-04-03T23:38:38.684Z,5.55
2023-04-03T23:44:55.489Z,5.20
2023-04-03T23:48:14.354Z,6.22
2023-04-03T23:54:41.153Z,6.78
2023-04-03T23:57:47.007Z,6.50
